Time;durP1;ratioP1;P1;durP2;ratioP2;P2;SDS_P1;SDS_P2;PMS_P1;PMS_P2;Temp;Humidity;BMP_temperature;BMP_pressure;BME280_temperature;BME280_humidity;BME280_pressure;Samples;Min_cycle;Max_cycle;Signal;HPM_P1;HPM_P2
2023/08/26 00:01:16;;;;;;;;;;;;;;;;;;4916732;29;19998;-92
2023/08/26 00:03:42;;;;;;;;;;;;;;;;;;4907282;29;20407;-91
2023/08/26 00:06:18;;;;;;;;;;;;;;;;;;4916549;29;19950;-91
2023/08/26 00:08:44;;;;;;;;;;;;;;;;;;4915828;29;19914;-91
2023/08/26 00:11:12;;;;;;;;;;;;;;;;;;4930474;29;19910;-91
2023/08/26 00:13:38;;;;;;;;;;;;;;;;;;4924896;28;19927;-90
2023/08/26 00:16:04;;;;;;;;;;;;;;;;;;4935561;29;20021;-92
2023/08/26 00:18:29;;;;;;;;;;;;;;;;;;4934854;28;19910;-93
2023/08/26 00:20:57;;;;;;;;;;;;;;;;;;4931235;29;19918;-91
2023/08/26 00:23:23;;;;;;;;;;;;;;;;;;4936393;29;19925;-91
2023/08/26 00:25:56;;;;;;;;;;;;;;;;;;4939360;28;19910;-91
2023/08/26 00:28:21;;;;;;;;;;;;;;;;;;4937071;29;19917;-91
2023/08/26 00:30:47;;;;;;;;;;;;;;;;;;4928519;28;19911;-93
2023/08/26 00:33:13;;;;;;;;;;;;;;;;;;4932558;29;20017;-92
2023/08/26 00:35:39;;;;;;;;;;;;;;;;;;4933391;28;19915;-92
2023/08/26 00:38:08;;;;;;;;;;;;;;;;;;4936397;28;19910;-93
2023/08/26 00:40:34;;;;;;;;;;;;;;;;;;4949770;28;19970;-91
2023/08/26 00:43:00;;;;;;;;;;;;;;;;;;4940193;28;21564;-93
2023/08/26 00:45:27;;;;;;;;;;;;;;;;;;4934828;28;20389;-92
2023/08/26 00:47:53;;;;;;;;;;;;;;;;;;4928331;28;19918;-90
2023/08/26 00:50:19;;;;;;;;;;;;;;;;;;4952102;28;19910;-91
2023/08/26 00:52:45;;;;;;;;;;;;;;;;;;4936416;28;19919;-91
2023/08/26 00:55:11;;;;;;;;;;;;;;;;;;4938630;29;19948;-92
2023/08/26 00:57:37;;;;;;;;;;;;;;;;;;4942946;29;20627;-92
2023/08/26 01:00:05;;;;;;;;;;;;;;;;;;4939800;28;20331;-93
2023/08/26 01:02:30;;;;;;;;;;;;;;;;;;4939107;29;19925;-92
2023/08/26 01:05:00;;;;;;;;;;;;;;;;;;4937623;29;19911;-91
2023/08/26 01:07:26;;;;;;;;;;;;;;;;;;4938558;28;19945;-92
2023/08/26 01:09:52;;;;;;;;;;;;;;;;;;4938106;28;20359;-93
2023/08/26 01:12:17;;;;;;;;;;;;;;;;;;4940823;29;19910;-93
2023/08/26 01:14:43;;;;;;;;;;;;;;;;;;4935008;28;19926;-92
2023/08/26 01:17:09;;;;;;;;;;;;;;;;;;4956477;28;19918;-93
2023/08/26 01:19:35;;;;;;;;;;;;;;;;;;4939912;28;20008;-92
2023/08/26 01:22:02;;;;;;;;;;;;;;;;;;4935201;28;20944;-93
2023/08/26 01:24:28;;;;;;;;;;;;;;;;;;4941321;28;20324;-93
2023/08/26 01:26:54;;;;;;;;;;;;;;;;;;4940751;29;19914;-92
2023/08/26 01:29:20;;;;;;;;;;;;;;;;;;4939331;28;19933;-92
2023/08/26 01:31:46;;;;;;;;;;;;;;;;;;4940286;28;19956;-93
2023/08/26 01:34:12;;;;;;;;;;;;;;;;;;4933978;28;19914;-93
2023/08/26 01:36:38;;;;;;;;;;;;;;;;;;4931972;28;19925;-93
2023/08/26 01:39:04;;;;;;;;;;;;;;;;;;4935105;28;19914;-90
2023/08/26 01:41:30;;;;;;;;;;;;;;;;;;4937121;28;19910;-91
2023/08/26 01:43:57;;;;;;;;;;;;;;;;;;4938200;28;19960;-93
2023/08/26 01:46:22;;;;;;;;;;;;;;;;;;4935272;29;19910;-92
2023/08/26 01:48:48;;;;;;;;;;;;;;;;;;4933884;28;19922;-92
2023/08/26 01:51:14;;;;;;;;;;;;;;;;;;4939940;28;19910;-91
2023/08/26 01:53:40;;;;;;;;;;;;;;;;;;4933705;28;19910;-92
2023/08/26 01:56:06;;;;;;;;;;;;;;;;;;4935180;29;19918;-92
2023/08/26 01:58:32;;;;;;;;;;;;;;;;;;4937693;28;19911;-92
2023/08/26 02:00:58;;;;;;;;;;;;;;;;;;4931440;28;19925;-92
2023/08/26 02:03:24;;;;;;;;;;;;;;;;;;4936317;28;19926;-91
2023/08/26 02:05:50;;;;;;;;;;;;;;;;;;4935925;29;19922;-93
2023/08/26 02:08:16;;;;;;;;;;;;;;;;;;4929840;28;20323;-93
2023/08/26 02:10:42;;;;;;;;;;;;;;;;;;4931987;28;19975;-93
2023/08/26 02:13:08;;;;;;;;;;;;;;;;;;4947464;28;19919;-92
2023/08/26 02:15:34;;;;;;;;;;;;;;;;;;4913076;29;20012;-93
2023/08/26 02:18:01;;;;;;;;;;;;;;;;;;4920754;29;20013;-93
2023/08/26 02:20:27;;;;;;;;;;;;;;;;;;4919980;29;19946;-92
2023/08/26 02:22:53;;;;;;;;;;;;;;;;;;4912769;29;19922;-93
2023/08/26 02:25:19;;;;;;;;;;;;;;;;;;4916236;29;19911;-92
2023/08/26 02:27:44;;;;;;;;;;;;;;;;;;4918105;29;20279;-92
2023/08/26 02:30:10;;;;;;;;;;;;;;;;;;4916090;29;19938;-94
2023/08/26 02:32:36;;;;;;;;;;;;;;;;;;4914184;29;19967;-94
2023/08/26 02:35:02;;;;;;;;;;;;;;;;;;4918288;29;20367;-93
2023/08/26 02:37:28;;;;;;;;;;;;;;;;;;4918579;29;19919;-92
2023/08/26 02:39:54;;;;;;;;;;;;;;;;;;4927118;29;20383;-93
2023/08/26 02:42:20;;;;;;;;;;;;;;;;;;4919476;29;20337;-92
2023/08/26 02:44:46;;;;;;;;;;;;;;;;;;4918895;29;20013;-92
2023/08/26 02:47:12;;;;;;;;;;;;;;;;;;4920193;29;19953;-91
2023/08/26 02:49:38;;;;;;;;;;;;;;;;;;4922894;29;19926;-92
2023/08/26 02:52:04;;;;;;;;;;;;;;;;;;4929418;29;19918;-92
2023/08/26 02:54:30;;;;;;;;;;;;;;;;;;4916946;29;19922;-92
2023/08/26 02:56:56;;;;;;;;;;;;;;;;;;4920875;29;19918;-91
2023/08/26 02:59:22;;;;;;;;;;;;;;;;;;4920559;29;19911;-91
2023/08/26 03:01:48;;;;;;;;;;;;;;;;;;4912957;29;19910;-91
2023/08/26 03:04:14;;;;;;;;;;;;;;;;;;4920455;29;20355;-92
2023/08/26 03:06:40;;;;;;;;;;;;;;;;;;4932370;29;19922;-91
2023/08/26 03:09:06;;;;;;;;;;;;;;;;;;4913974;29;19934;-93
2023/08/26 03:11:31;;;;;;;;;;;;;;;;;;4917453;29;19922;-91
2023/08/26 03:13:57;;;;;;;;;;;;;;;;;;4930543;28;19918;-91
2023/08/26 03:16:23;;;;;;;;;;;;;;;;;;4939318;29;19923;-92
2023/08/26 03:18:49;;;;;;;;;;;;;;;;;;4940984;28;19920;-91
2023/08/26 03:21:15;;;;;;;;;;;;;;;;;;4930871;29;20001;-91
2023/08/26 03:23:41;;;;;;;;;;;;;;;;;;4941966;29;19944;-91
2023/08/26 03:26:07;;;;;;;;;;;;;;;;;;4938965;29;19919;-90
2023/08/26 03:28:33;;;;;;;;;;;;;;;;;;4946502;28;19953;-93
2023/08/26 03:30:59;;;;;;;;;;;;;;;;;;4931053;29;20585;-93
2023/08/26 03:33:25;;;;;;;;;;;;;;;;;;4936607;28;19910;-94
2023/08/26 03:35:51;;;;;;;;;;;;;;;;;;4939074;29;20270;-95
2023/08/26 03:38:17;;;;;;;;;;;;;;;;;;4949915;28;20595;-96
2023/08/26 03:40:43;;;;;;;;;;;;;;;;;;4937603;29;20180;-95
2023/08/26 03:43:09;;;;;;;;;;;;;;;;;;4946862;28;19915;-94
2023/08/26 03:45:35;;;;;;;;;;;;;;;;;;4938344;29;19986;-95
2023/08/26 03:48:01;;;;;;;;;;;;;;;;;;4938433;28;19918;-96
2023/08/26 03:50:27;;;;;;;;;;;;;;;;;;4940274;29;20294;-93
2023/08/26 03:52:53;;;;;;;;;;;;;;;;;;4940980;28;19914;-92
2023/08/26 03:55:19;;;;;;;;;;;;;;;;;;4937690;28;19921;-95
2023/08/26 03:57:46;;;;;;;;;;;;;;;;;;4952813;28;20033;-95
2023/08/26 04:00:12;;;;;;;;;;;;;;;;;;4938998;28;20008;-94
2023/08/26 04:02:38;;;;;;;;;;;;;;;;;;4938654;29;19914;-92
2023/08/26 04:05:04;;;;;;;;;;;;;;;;;;4940866;28;19918;-93
2023/08/26 04:07:29;;;;;;;;;;;;;;;;;;4934731;29;19925;-93
2023/08/26 04:09:55;;;;;;;;;;;;;;;;;;4935356;29;19917;-93
2023/08/26 04:12:21;;;;;;;;;;;;;;;;;;4937049;28;19910;-94
2023/08/26 04:14:47;;;;;;;;;;;;;;;;;;4936619;28;19929;-94
2023/08/26 04:17:13;;;;;;;;;;;;;;;;;;4939845;28;19915;-94
2023/08/26 04:19:39;;;;;;;;;;;;;;;;;;4939551;28;19915;-96
2023/08/26 04:22:07;;;;;;;;;;;;;;;;;;4942175;28;19910;-94
2023/08/26 04:24:33;;;;;;;;;;;;;;;;;;4938905;29;19910;-94
2023/08/26 04:26:59;;;;;;;;;;;;;;;;;;4937373;28;19911;-93
2023/08/26 04:29:25;;;;;;;;;;;;;;;;;;4939142;29;19987;-93
2023/08/26 04:31:51;;;;;;;;;;;;;;;;;;4939881;28;19958;-93
2023/08/26 04:34:17;;;;;;;;;;;;;;;;;;4940212;29;19915;-94
2023/08/26 04:36:43;;;;;;;;;;;;;;;;;;4940656;28;19918;-93
2023/08/26 04:39:12;;;;;;;;;;;;;;;;;;4928497;29;19907;-94
2023/08/26 04:41:38;;;;;;;;;;;;;;;;;;4943758;28;19921;-92
2023/08/26 04:44:12;;;;;;;;;;;;;;;;;;4927920;29;19929;-93
2023/08/26 04:46:41;;;;;;;;;;;;;;;;;;4941451;28;19970;-93
2023/08/26 04:49:07;;;;;;;;;;;;;;;;;;4937133;29;19914;-93
2023/08/26 04:51:33;;;;;;;;;;;;;;;;;;4932776;29;19911;-91
2023/08/26 04:53:59;;;;;;;;;;;;;;;;;;4933094;28;19926;-92
2023/08/26 04:56:25;;;;;;;;;;;;;;;;;;4938745;29;19936;-93
2023/08/26 04:58:51;;;;;;;;;;;;;;;;;;4935591;29;20375;-92
2023/08/26 05:01:27;;;;;;;;;;;;;;;;;;4935605;28;19906;-92
2023/08/26 05:03:54;;;;;;;;;;;;;;;;;;4933915;28;20331;-93
2023/08/26 05:06:19;;;;;;;;;;;;;;;;;;4936592;28;20406;-93
2023/08/26 05:08:45;;;;;;;;;;;;;;;;;;4934755;29;19984;-92
2023/08/26 05:11:11;;;;;;;;;;;;;;;;;;4938799;28;19941;-92
2023/08/26 05:13:37;;;;;;;;;;;;;;;;;;4942809;28;20001;-91
2023/08/26 05:16:03;;;;;;;;;;;;;;;;;;4922205;29;19919;-92
2023/08/26 05:18:29;;;;;;;;;;;;;;;;;;4936675;29;19919;-91
2023/08/26 05:20:55;;;;;;;;;;;;;;;;;;4915763;29;19989;-93
2023/08/26 05:23:21;;;;;;;;;;;;;;;;;;4918875;29;20375;-94
2023/08/26 05:25:47;;;;;;;;;;;;;;;;;;4915229;29;19934;-94
2023/08/26 05:28:13;;;;;;;;;;;;;;;;;;4922156;29;19987;-93
2023/08/26 05:30:39;;;;;;;;;;;;;;;;;;4918946;29;19950;-93
2023/08/26 05:33:14;;;;;;;;;;;;;;;;;;4912264;29;20007;-93
2023/08/26 05:35:43;;;;;;;;;;;;;;;;;;4916511;29;19934;-93
2023/08/26 05:38:09;;;;;;;;;;;;;;;;;;4919666;29;20434;-93
2023/08/26 05:40:35;;;;;;;;;;;;;;;;;;4920726;29;19998;-94
2023/08/26 05:43:01;;;;;;;;;;;;;;;;;;4915920;29;20359;-94
2023/08/26 05:45:27;;;;;;;;;;;;;;;;;;4918235;29;19915;-93
2023/08/26 05:47:54;;;;;;;;;;;;;;;;;;4918723;29;19926;-91
2023/08/26 05:50:22;;;;;;;;;;;;;;;;;;4934837;29;19921;-91
2023/08/26 05:52:48;;;;;;;;;;;;;;;;;;4921934;29;20374;-91
2023/08/26 05:55:14;;;;;;;;;;;;;;;;;;4918340;29;19919;-92
2023/08/26 05:57:40;;;;;;;;;;;;;;;;;;4918330;29;20093;-91
2023/08/26 06:00:06;;;;;;;;;;;;;;;;;;4917742;29;20388;-91
2023/08/26 06:02:45;;;;;;;;;;;;;;;;;;4922718;29;19926;-91
2023/08/26 06:05:11;;;;;;;;;;;;;;;;;;4914698;29;19945;-92
2023/08/26 06:07:36;;;;;;;;;;;;;;;;;;4917630;29;20038;-93
2023/08/26 06:10:04;;;;;;;;;;;;;;;;;;4914137;29;20070;-94
2023/08/26 06:12:30;;;;;;;;;;;;;;;;;;4912732;29;19958;-92
2023/08/26 06:14:56;;;;;;;;;;;;;;;;;;4923302;28;19918;-91
2023/08/26 06:17:22;;;;;;;;;;;;;;;;;;4925931;29;19926;-91
2023/08/26 06:19:48;;;;;;;;;;;;;;;;;;4926036;29;19915;-91
2023/08/26 06:22:14;;;;;;;;;;;;;;;;;;4931711;28;19921;-91
2023/08/26 06:24:40;;;;;;;;;;;;;;;;;;4931475;28;19918;-91
2023/08/26 06:27:12;;;;;;;;;;;;;;;;;;4933186;28;20366;-91
2023/08/26 06:29:38;;;;;;;;;;;;;;;;;;4948121;28;20191;-92
2023/08/26 06:32:04;;;;;;;;;;;;;;;;;;4937011;28;19918;-92
2023/08/26 06:34:30;;;;;;;;;;;;;;;;;;4935530;28;20472;-92
2023/08/26 06:37:03;;;;;;;;;;;;;;;;;;4952571;28;19919;-92
2023/08/26 06:39:29;;;;;;;;;;;;;;;;;;4932960;28;19942;-92
2023/08/26 06:41:55;;;;;;;;;;;;;;;;;;4932254;28;19926;-93
2023/08/26 06:44:21;;;;;;;;;;;;;;;;;;4934423;28;19914;-93
2023/08/26 06:46:47;;;;;;;;;;;;;;;;;;4935244;29;19915;-93
2023/08/26 06:49:13;;;;;;;;;;;;;;;;;;4940784;28;20378;-93
2023/08/26 06:51:39;;;;;;;;;;;;;;;;;;4942189;28;19910;-94
2023/08/26 06:54:06;;;;;;;;;;;;;;;;;;4954947;28;20322;-94
2023/08/26 06:56:32;;;;;;;;;;;;;;;;;;4939988;28;19914;-93
2023/08/26 06:58:58;;;;;;;;;;;;;;;;;;4938460;29;19914;-94
2023/08/26 07:01:24;;;;;;;;;;;;;;;;;;4933943;28;19922;-94
2023/08/26 07:03:53;;;;;;;;;;;;;;;;;;4937435;29;19982;-94
2023/08/26 07:06:19;;;;;;;;;;;;;;;;;;4952522;28;19914;-95
2023/08/26 07:08:55;;;;;;;;;;;;;;;;;;4928140;29;19930;-94
2023/08/26 07:11:22;;;;;;;;;;;;;;;;;;4942439;29;20287;-94
2023/08/26 07:13:48;;;;;;;;;;;;;;;;;;4942131;29;20072;-94
2023/08/26 07:16:20;;;;;;;;;;;;;;;;;;4946102;28;19918;-94
2023/08/26 07:18:47;;;;;;;;;;;;;;;;;;4941082;28;19918;-93
2023/08/26 07:21:12;;;;;;;;;;;;;;;;;;4946069;29;20053;-94
2023/08/26 07:23:38;;;;;;;;;;;;;;;;;;4941663;28;20040;-93
2023/08/26 07:26:05;;;;;;;;;;;;;;;;;;4945055;29;19943;-94
2023/08/26 07:28:31;;;;;;;;;;;;;;;;;;4941230;28;20232;-95
2023/08/26 07:30:57;;;;;;;;;;;;;;;;;;4945685;29;19911;-94
2023/08/26 07:33:23;;;;;;;;;;;;;;;;;;4947444;28;19953;-93
2023/08/26 07:35:49;;;;;;;;;;;;;;;;;;4957766;28;19926;-93
2023/08/26 07:38:15;;;;;;;;;;;;;;;;;;4941423;29;19941;-93
2023/08/26 07:40:41;;;;;;;;;;;;;;;;;;4943094;29;19922;-94
2023/08/26 07:43:08;;;;;;;;;;;;;;;;;;4958992;28;19911;-94
2023/08/26 07:45:37;;;;;;;;;;;;;;;;;;4948821;29;19964;-92
2023/08/26 07:48:03;;;;;;;;;;;;;;;;;;4941558;28;19895;-93
2023/08/26 07:50:29;;;;;;;;;;;;;;;;;;4944800;29;19914;-94
2023/08/26 07:52:55;;;;;;;;;;;;;;;;;;4961768;28;19910;-93
2023/08/26 07:55:22;;;;;;;;;;;;;;;;;;4944673;29;19994;-93
2023/08/26 07:57:48;;;;;;;;;;;;;;;;;;4940456;29;19910;-93
2023/08/26 08:00:14;;;;;;;;;;;;;;;;;;4945436;29;20520;-93
2023/08/26 08:02:40;;;;;;;;;;;;;;;;;;4936231;28;19948;-93
2023/08/26 08:05:06;;;;;;;;;;;;;;;;;;4943561;29;19907;-92
2023/08/26 08:07:41;;;;;;;;;;;;;;;;;;4939525;29;20009;-92
2023/08/26 08:10:08;;;;;;;;;;;;;;;;;;4940413;29;19938;-93
2023/08/26 08:12:34;;;;;;;;;;;;;;;;;;4942385;29;19960;-90
2023/08/26 08:14:59;;;;;;;;;;;;;;;;;;4941915;28;19914;-91
2023/08/26 08:17:25;;;;;;;;;;;;;;;;;;4941511;28;20291;-93
2023/08/26 08:19:55;;;;;;;;;;;;;;;;;;4948309;29;19917;-91
2023/08/26 08:22:21;;;;;;;;;;;;;;;;;;4943946;28;19938;-90
2023/08/26 08:24:47;;;;;;;;;;;;;;;;;;4930750;29;19914;-89
2023/08/26 08:27:13;;;;;;;;;;;;;;;;;;4939771;28;19942;-90
2023/08/26 08:29:39;;;;;;;;;;;;;;;;;;4926608;29;19922;-91
2023/08/26 08:32:12;;;;;;;;;;;;;;;;;;4939860;28;19915;-89
2023/08/26 08:34:38;;;;;;;;;;;;;;;;;;4936857;29;20429;-90
2023/08/26 08:37:04;;;;;;;;;;;;;;;;;;4935474;28;19965;-91
2023/08/26 08:39:30;;;;;;;;;;;;;;;;;;4935626;29;19942;-92
2023/08/26 08:41:56;;;;;;;;;;;;;;;;;;4938009;28;19910;-91
2023/08/26 08:44:32;;;;;;;;;;;;;;;;;;4935266;29;19918;-90
2023/08/26 08:46:58;;;;;;;;;;;;;;;;;;4933168;29;19915;-92
2023/08/26 08:49:24;;;;;;;;;;;;;;;;;;4929202;28;19919;-90
2023/08/26 08:51:51;;;;;;;;;;;;;;;;;;4933233;28;19921;-90
2023/08/26 08:54:17;;;;;;;;;;;;;;;;;;4949422;28;19917;-89
2023/08/26 08:56:43;;;;;;;;;;;;;;;;;;4935735;28;19926;-90
2023/08/26 08:59:09;;;;;;;;;;;;;;;;;;4949946;28;19914;-90
2023/08/26 09:01:35;;;;;;;;;;;;;;;;;;4929019;28;20235;-90
2023/08/26 09:04:02;;;;;;;;;;;;;;;;;;4930492;28;19906;-91
2023/08/26 09:06:28;;;;;;;;;;;;;;;;;;4949833;28;19910;-90
2023/08/26 09:08:54;;;;;;;;;;;;;;;;;;4938858;28;19914;-91
2023/08/26 09:11:21;;;;;;;;;;;;;;;;;;4936829;28;19972;-91
2023/08/26 09:13:47;;;;;;;;;;;;;;;;;;4938550;28;20009;-90
2023/08/26 09:16:13;;;;;;;;;;;;;;;;;;4937850;28;19970;-91
2023/08/26 09:18:40;;;;;;;;;;;;;;;;;;4934802;29;20291;-91
2023/08/26 09:21:07;;;;;;;;;;;;;;;;;;4909976;29;19911;-89
2023/08/26 09:23:33;;;;;;;;;;;;;;;;;;4911472;29;19942;-89
2023/08/26 09:26:02;;;;;;;;;;;;;;;;;;4920515;29;20197;-89
2023/08/26 09:28:32;;;;;;;;;;;;;;;;;;4918703;29;19942;-89
2023/08/26 09:30:58;;;;;;;;;;;;;;;;;;4929166;29;20367;-90
2023/08/26 09:33:24;;;;;;;;;;;;;;;;;;4918147;29;19942;-90
2023/08/26 09:35:50;;;;;;;;;;;;;;;;;;4938589;29;19910;-90
2023/08/26 09:38:16;;;;;;;;;;;;;;;;;;4914939;29;20018;-90
2023/08/26 09:40:42;;;;;;;;;;;;;;;;;;4905042;29;19986;-89
2023/08/26 09:43:10;;;;;;;;;;;;;;;;;;4926534;29;19910;-90
2023/08/26 09:45:37;;;;;;;;;;;;;;;;;;4913872;29;19921;-90
2023/08/26 09:48:06;;;;;;;;;;;;;;;;;;4916219;29;19910;-90
2023/08/26 09:50:32;;;;;;;;;;;;;;;;;;4911789;29;19946;-89
2023/08/26 09:52:58;;;;;;;;;;;;;;;;;;4922494;29;20389;-89
2023/08/26 09:55:24;;;;;;;;;;;;;;;;;;4916056;29;19911;-90
2023/08/26 09:57:59;;;;;;;;;;;;;;;;;;4916448;29;19922;-89
2023/08/26 10:00:48;;;;;;;;;;;;;;;;;;4916756;29;19915;-89
2023/08/26 10:03:28;;;;;;;;;;;;;;;;;;4928836;29;19934;-89
2023/08/26 10:05:55;;;;;;;;;;;;;;;;;;4914958;29;20354;-89
2023/08/26 10:11:05;;;;;;;;;;;;;;;;;;4932921;29;19926;-89
2023/08/26 10:13:31;;;;;;;;;;;;;;;;;;4914559;29;19923;-89
2023/08/26 10:15:57;;;;;;;;;;;;;;;;;;4928116;28;20001;-89
2023/08/26 10:18:24;;;;;;;;;;;;;;;;;;4906988;29;19923;-89
2023/08/26 10:20:50;;;;;;;;;;;;;;;;;;4924443;29;20143;-89
2023/08/26 10:23:16;;;;;;;;;;;;;;;;;;4934750;29;19970;-89
2023/08/26 10:25:42;;;;;;;;;;;;;;;;;;4916726;29;19911;-90
2023/08/26 10:28:08;;;;;;;;;;;;;;;;;;4920943;29;19937;-91
2023/08/26 10:30:34;;;;;;;;;;;;;;;;;;4924161;29;19914;-92
2023/08/26 10:33:00;;;;;;;;;;;;;;;;;;4924221;29;20422;-91
2023/08/26 10:35:27;;;;;;;;;;;;;;;;;;4918287;29;19924;-91
2023/08/26 10:37:53;;;;;;;;;;;;;;;;;;4912632;29;19915;-90
2023/08/26 10:40:19;;;;;;;;;;;;;;;;;;4917457;29;19915;-90
2023/08/26 10:42:45;;;;;;;;;;;;;;;;;;4912633;29;20378;-90
2023/08/26 10:45:11;;;;;;;;;;;;;;;;;;4929382;29;19911;-90
2023/08/26 10:47:38;;;;;;;;;;;;;;;;;;4932726;29;20408;-90
2023/08/26 10:50:04;;;;;;;;;;;;;;;;;;4916539;29;20025;-90
2023/08/26 10:52:31;;;;;;;;;;;;;;;;;;4914712;29;19958;-90
2023/08/26 10:54:57;;;;;;;;;;;;;;;;;;4929960;29;19911;-90
2023/08/26 10:57:23;;;;;;;;;;;;;;;;;;4914184;29;19911;-89
2023/08/26 10:59:49;;;;;;;;;;;;;;;;;;4911854;29;19919;-89
2023/08/26 11:02:18;;;;;;;;;;;;;;;;;;4919453;29;20024;-89
2023/08/26 11:04:43;;;;;;;;;;;;;;;;;;4917186;29;19911;-90
2023/08/26 11:07:09;;;;;;;;;;;;;;;;;;4927352;29;20005;-90
2023/08/26 11:09:37;;;;;;;;;;;;;;;;;;4928844;29;19918;-90
2023/08/26 11:12:03;;;;;;;;;;;;;;;;;;4915406;29;19914;-91
2023/08/26 11:14:28;;;;;;;;;;;;;;;;;;4927386;29;20403;-92
2023/08/26 11:16:54;;;;;;;;;;;;;;;;;;4928560;28;19926;-92
2023/08/26 11:19:20;;;;;;;;;;;;;;;;;;4935459;28;20072;-91
2023/08/26 11:21:46;;;;;;;;;;;;;;;;;;4938327;28;20386;-91
2023/08/26 11:26:58;;;;;;;;;;;;;;;;;;4927378;28;19914;-92
2023/08/26 11:29:25;;;;;;;;;;;;;;;;;;4939990;29;20047;-92
2023/08/26 11:31:51;;;;;;;;;;;;;;;;;;4931734;28;19914;-92
2023/08/26 11:34:17;;;;;;;;;;;;;;;;;;4932823;28;19978;-91
2023/08/26 11:36:43;;;;;;;;;;;;;;;;;;4938904;29;20016;-91
2023/08/26 11:39:09;;;;;;;;;;;;;;;;;;4935072;29;19919;-92
2023/08/26 11:44:20;;;;;;;;;;;;;;;;;;4950702;28;20029;-92
2023/08/26 11:46:45;;;;;;;;;;;;;;;;;;4934829;28;19961;-93
2023/08/26 11:49:11;;;;;;;;;;;;;;;;;;4938316;28;19914;-93
2023/08/26 11:51:37;;;;;;;;;;;;;;;;;;4931603;28;19918;-94
2023/08/26 11:54:03;;;;;;;;;;;;;;;;;;4935026;29;19910;-93
2023/08/26 11:56:35;;;;;;;;;;;;;;;;;;4937902;29;19920;-93
2023/08/26 11:59:01;;;;;;;;;;;;;;;;;;4931107;29;19915;-90
2023/08/26 12:01:27;;;;;;;;;;;;;;;;;;4935402;28;19911;-91
2023/08/26 12:03:53;;;;;;;;;;;;;;;;;;4935735;29;19933;-91
2023/08/26 12:06:19;;;;;;;;;;;;;;;;;;4936470;28;19984;-91
2023/08/26 12:08:45;;;;;;;;;;;;;;;;;;4929331;28;19918;-90
2023/08/26 12:11:11;;;;;;;;;;;;;;;;;;4938635;29;19919;-91
2023/08/26 12:13:44;;;;;;;;;;;;;;;;;;4940895;29;20001;-91
2023/08/26 12:16:10;;;;;;;;;;;;;;;;;;4942797;28;19915;-91
2023/08/26 12:18:36;;;;;;;;;;;;;;;;;;4946428;29;19961;-93
2023/08/26 12:21:02;;;;;;;;;;;;;;;;;;4945376;29;19910;-91
2023/08/26 12:23:38;;;;;;;;;;;;;;;;;;4947321;29;19914;-90
2023/08/26 12:26:04;;;;;;;;;;;;;;;;;;4945611;28;19916;-91
2023/08/26 12:28:33;;;;;;;;;;;;;;;;;;4953907;28;20466;-90
2023/08/26 12:30:59;;;;;;;;;;;;;;;;;;4943534;29;19921;-90
2023/08/26 12:33:25;;;;;;;;;;;;;;;;;;4942482;28;19918;-90
2023/08/26 12:35:52;;;;;;;;;;;;;;;;;;4934215;28;20026;-89
2023/08/26 12:38:17;;;;;;;;;;;;;;;;;;4931301;28;19926;-91
2023/08/26 12:40:47;;;;;;;;;;;;;;;;;;4927497;28;19945;-90
2023/08/26 12:43:14;;;;;;;;;;;;;;;;;;4949874;28;19977;-91
2023/08/26 12:45:40;;;;;;;;;;;;;;;;;;4933161;28;19959;-91
2023/08/26 12:48:06;;;;;;;;;;;;;;;;;;4936787;28;19923;-91
2023/08/26 12:50:31;;;;;;;;;;;;;;;;;;4932337;29;19914;-91
2023/08/26 12:52:57;;;;;;;;;;;;;;;;;;4928714;28;19918;-92
2023/08/26 12:55:23;;;;;;;;;;;;;;;;;;4945349;28;20005;-91
2023/08/26 12:57:55;;;;;;;;;;;;;;;;;;4939332;28;19918;-92
2023/08/26 13:00:21;;;;;;;;;;;;;;;;;;4951545;28;19918;-91
2023/08/26 13:02:48;;;;;;;;;;;;;;;;;;4940653;28;19917;-92
2023/08/26 13:05:14;;;;;;;;;;;;;;;;;;4956316;28;19925;-92
2023/08/26 13:07:40;;;;;;;;;;;;;;;;;;4939221;29;19911;-92
2023/08/26 13:10:07;;;;;;;;;;;;;;;;;;4935048;29;19918;-93
2023/08/26 13:12:42;;;;;;;;;;;;;;;;;;4940943;29;19932;-92
2023/08/26 13:15:08;;;;;;;;;;;;;;;;;;4953359;29;20413;-92
2023/08/26 13:17:44;;;;;;;;;;;;;;;;;;4942743;28;19915;-90
2023/08/26 13:20:10;;;;;;;;;;;;;;;;;;4922865;29;19942;-90
2023/08/26 13:22:46;;;;;;;;;;;;;;;;;;4917043;29;19913;-90
2023/08/26 13:25:12;;;;;;;;;;;;;;;;;;4917486;29;19911;-90
2023/08/26 13:27:38;;;;;;;;;;;;;;;;;;4927619;29;19918;-91
2023/08/26 13:30:07;;;;;;;;;;;;;;;;;;4924974;29;19914;-91
2023/08/26 13:32:36;;;;;;;;;;;;;;;;;;4924836;29;19911;-91
2023/08/26 13:35:05;;;;;;;;;;;;;;;;;;4924020;29;19911;-91
2023/08/26 13:37:31;;;;;;;;;;;;;;;;;;4921108;29;19925;-92
2023/08/26 13:39:57;;;;;;;;;;;;;;;;;;4933253;29;19919;-90
2023/08/26 13:42:23;;;;;;;;;;;;;;;;;;4922930;29;19915;-90
2023/08/26 13:44:49;;;;;;;;;;;;;;;;;;4931835;29;19950;-92
2023/08/26 13:47:15;;;;;;;;;;;;;;;;;;4918401;29;19915;-92
2023/08/26 13:49:42;;;;;;;;;;;;;;;;;;4915531;29;20013;-92
2023/08/26 13:52:08;;;;;;;;;;;;;;;;;;4916218;29;19918;-92
2023/08/26 13:54:34;;;;;;;;;;;;;;;;;;4913232;29;19911;-92
2023/08/26 13:57:00;;;;;;;;;;;;;;;;;;4917364;29;19973;-91
2023/08/26 13:59:29;;;;;;;;;;;;;;;;;;4912250;29;19911;-90
2023/08/26 14:01:55;;;;;;;;;;;;;;;;;;4912255;29;19940;-91
2023/08/26 14:04:21;;;;;;;;;;;;;;;;;;4919228;29;19911;-91
2023/08/26 14:06:47;;;;;;;;;;;;;;;;;;4915585;29;19915;-90
2023/08/26 14:09:15;;;;;;;;;;;;;;;;;;4934789;29;20282;-91
2023/08/26 14:11:43;;;;;;;;;;;;;;;;;;4918284;29;19919;-91
2023/08/26 14:14:09;;;;;;;;;;;;;;;;;;4915108;29;20294;-90
2023/08/26 14:16:37;;;;;;;;;;;;;;;;;;4915550;28;19926;-90
2023/08/26 14:19:03;;;;;;;;;;;;;;;;;;4912982;29;19915;-93
2023/08/26 14:21:29;;;;;;;;;;;;;;;;;;4915307;29;19985;-90
2023/08/26 14:23:55;;;;;;;;;;;;;;;;;;4919292;29;20170;-90
2023/08/26 14:26:21;;;;;;;;;;;;;;;;;;4917674;29;19913;-91
2023/08/26 14:28:47;;;;;;;;;;;;;;;;;;4912539;29;19915;-89
2023/08/26 14:31:13;;;;;;;;;;;;;;;;;;4915441;29;19915;-89
2023/08/26 14:33:40;;;;;;;;;;;;;;;;;;4905541;29;20295;-89
2023/08/26 14:36:07;;;;;;;;;;;;;;;;;;4931377;29;20002;-90
2023/08/26 14:38:33;;;;;;;;;;;;;;;;;;4925829;29;19934;-90
2023/08/26 14:40:59;;;;;;;;;;;;;;;;;;4931999;29;19915;-90
2023/08/26 14:43:25;;;;;;;;;;;;;;;;;;4929892;29;19918;-90
2023/08/26 14:45:51;;;;;;;;;;;;;;;;;;4928584;29;19978;-89
2023/08/26 14:48:17;;;;;;;;;;;;;;;;;;4911815;29;19922;-89
2023/08/26 14:50:43;;;;;;;;;;;;;;;;;;4915214;29;19911;-89
2023/08/26 14:53:09;;;;;;;;;;;;;;;;;;4915271;29;20342;-88
2023/08/26 14:55:35;;;;;;;;;;;;;;;;;;4911996;29;20033;-89
2023/08/26 14:58:01;;;;;;;;;;;;;;;;;;4919805;29;20393;-89
2023/08/26 15:00:27;;;;;;;;;;;;;;;;;;4913429;29;19969;-90
2023/08/26 15:02:53;;;;;;;;;;;;;;;;;;4914456;29;19974;-90
2023/08/26 15:05:19;;;;;;;;;;;;;;;;;;4928840;29;19974;-89
2023/08/26 15:07:45;;;;;;;;;;;;;;;;;;4935096;29;19919;-90
2023/08/26 15:10:11;;;;;;;;;;;;;;;;;;4922942;29;19907;-90
2023/08/26 15:12:37;;;;;;;;;;;;;;;;;;4925284;29;19923;-88
2023/08/26 15:15:03;;;;;;;;;;;;;;;;;;4924391;29;20001;-90
2023/08/26 15:17:32;;;;;;;;;;;;;;;;;;4927731;28;19929;-91
2023/08/26 15:19:59;;;;;;;;;;;;;;;;;;4936925;29;19910;-90
2023/08/26 15:22:26;;;;;;;;;;;;;;;;;;4944184;28;19925;-91
2023/08/26 15:24:52;;;;;;;;;;;;;;;;;;4942886;29;19924;-90
2023/08/26 15:27:18;;;;;;;;;;;;;;;;;;4940387;29;20014;-91
2023/08/26 15:29:51;;;;;;;;;;;;;;;;;;4941327;28;19911;-90
2023/08/26 15:32:17;;;;;;;;;;;;;;;;;;4942018;29;19911;-91
2023/08/26 15:34:43;;;;;;;;;;;;;;;;;;4958618;28;20393;-91
2023/08/26 15:37:09;;;;;;;;;;;;;;;;;;4942265;28;19969;-90
2023/08/26 15:39:35;;;;;;;;;;;;;;;;;;4945463;28;19921;-90
2023/08/26 15:42:01;;;;;;;;;;;;;;;;;;4947212;28;19917;-91
2023/08/26 15:44:26;;;;;;;;;;;;;;;;;;4939770;28;19910;-90
2023/08/26 15:46:52;;;;;;;;;;;;;;;;;;4936702;29;20359;-91
2023/08/26 15:49:18;;;;;;;;;;;;;;;;;;4938614;28;20340;-90
2023/08/26 15:51:44;;;;;;;;;;;;;;;;;;4942405;29;19910;-90
2023/08/26 15:54:10;;;;;;;;;;;;;;;;;;4938893;28;20378;-89
2023/08/26 15:56:39;;;;;;;;;;;;;;;;;;4936745;29;19918;-89
2023/08/26 15:59:05;;;;;;;;;;;;;;;;;;4945978;29;19910;-90
2023/08/26 16:01:32;;;;;;;;;;;;;;;;;;4940797;28;20004;-90
2023/08/26 16:03:58;;;;;;;;;;;;;;;;;;4935164;29;19925;-90
2023/08/26 16:06:24;;;;;;;;;;;;;;;;;;4952400;28;19914;-89
2023/08/26 16:08:50;;;;;;;;;;;;;;;;;;4939421;28;19917;-90
2023/08/26 16:11:16;;;;;;;;;;;;;;;;;;4939011;28;20001;-89
2023/08/26 16:13:42;;;;;;;;;;;;;;;;;;4939838;29;19960;-90
2023/08/26 16:16:12;;;;;;;;;;;;;;;;;;4956075;28;19914;-90
2023/08/26 16:18:38;;;;;;;;;;;;;;;;;;4936354;28;19974;-89
2023/08/26 16:21:04;;;;;;;;;;;;;;;;;;4950360;28;19945;-89
2023/08/26 16:23:30;;;;;;;;;;;;;;;;;;4932289;28;19924;-88
2023/08/26 16:25:56;;;;;;;;;;;;;;;;;;4937120;28;19919;-89
2023/08/26 16:28:22;;;;;;;;;;;;;;;;;;4933716;29;19972;-90
2023/08/26 16:30:48;;;;;;;;;;;;;;;;;;4937989;29;20013;-88
2023/08/26 16:33:14;;;;;;;;;;;;;;;;;;4937060;29;19968;-90
2023/08/26 16:35:40;;;;;;;;;;;;;;;;;;4938118;28;20249;-89
2023/08/26 16:38:09;;;;;;;;;;;;;;;;;;4950599;28;19926;-89
2023/08/26 16:40:35;;;;;;;;;;;;;;;;;;4933956;29;19910;-89
2023/08/26 16:43:01;;;;;;;;;;;;;;;;;;4934105;29;20002;-88
2023/08/26 16:45:27;;;;;;;;;;;;;;;;;;4934940;29;19910;-88
2023/08/26 16:47:53;;;;;;;;;;;;;;;;;;4932368;28;19915;-89
2023/08/26 16:50:18;;;;;;;;;;;;;;;;;;4932752;29;19934;-88